Portada
METAR-TAF:

METAR-TAF

Aeroports :

Al-Ula, Aràbia Saudita

latitud: 26-29-00N, longitud: 038-07-01E, altitud: 624 m

Observació

L'informe es va fer fa 25 minuts, a les 02:00 UTC
Vent calma
Temperatura 28°C
Humitat 20%
Pressió 1014 hPa
Visibilitat 10 km o més
sense núvols per sota de 1500 mi sense presència de cumulonimbus.

METAR: OEAO 250200Z 00000KT CAVOK 28/03 Q1014

Hora: 05:25 (02:25 UTC)

Pronòstic

L'informe es va fer fa 3 hores i 25 minuts, a les 23:00 UTC
Pronòstic vàlid del 25 a les 00 UTC al 26 a les 06 UTC
Vent 16 kt del Nord
Visibilitat 10 km o més
sense núvols per sota de 1500 mi sense presència de cumulonimbus.
Evolucionant progressivament
l' 25 a les 20 UTC al 25 a les 22 UTC
Vent 8 kt del Nord/Nord-Oest

TAF: OEAO 242300Z 2500/2606 36016KT CAVOK BECMG 2520/2522 33008KT

Observacions i pronòstics meteorològics de més de 4000 aeroports (METAR i TAF).

Les estacions disponibles són els punts grocs i vermells al mapa.

Posi el ratolí al punt desitjat per veure el nom de l'estació.

Feu clic per veure les observacions i els pronòstics meteorològics.

Per canviar el mapa: feu clic els botons verds amb una creu de color negre per apropar; al botó verd amb un guió per allunyar la imatge; o en les fletxes verdes per a mapes adjacents.


METAR-TAF: